createdAt,value
2023-02-06T00:00:24.091Z,71.99
2023-02-06T00:02:50.794Z,71.85
2023-02-06T00:05:17.331Z,72.26
2023-02-06T00:07:43.818Z,71.95
2023-02-06T00:10:10.275Z,71.97
2023-02-06T00:12:36.823Z,72.09
2023-02-06T00:15:03.475Z,72.31
2023-02-06T00:17:29.962Z,72.46
2023-02-06T00:19:56.372Z,72.78
2023-02-06T00:22:22.777Z,72.25
2023-02-06T00:24:49.199Z,72.24
2023-02-06T00:27:15.628Z,72.20
2023-02-06T00:29:42.042Z,72.19
2023-02-06T00:32:08.509Z,72.13
2023-02-06T00:34:34.967Z,72.12
2023-02-06T00:37:01.547Z,72.50
2023-02-06T00:39:28.154Z,72.17
2023-02-06T00:41:55.731Z,72.26
2023-02-06T00:44:23.137Z,72.26
2023-02-06T00:46:49.736Z,72.15
2023-02-06T00:49:16.449Z,72.14
2023-02-06T00:51:42.974Z,72.23
2023-02-06T00:54:09.693Z,72.24
2023-02-06T00:56:36.232Z,72.04
2023-02-06T00:59:02.674Z,72.35
2023-02-06T01:01:29.175Z,72.28
2023-02-06T01:03:55.672Z,72.45
2023-02-06T01:06:22.339Z,72.51
2023-02-06T01:08:48.986Z,72.38
2023-02-06T01:11:19.157Z,72.61
2023-02-06T01:13:46.025Z,72.63
2023-02-06T01:16:15.863Z,72.58
2023-02-06T01:18:42.754Z,72.12
2023-02-06T01:21:15.252Z,72.43
2023-02-06T01:23:42.689Z,72.52
2023-02-06T01:26:12.186Z,72.52
2023-02-06T01:28:41.185Z,72.64
2023-02-06T01:31:17.170Z,72.43
2023-02-06T01:33:45.082Z,72.40
2023-02-06T01:36:13.548Z,72.40
2023-02-06T01:38:41.296Z,72.77
2023-02-06T01:41:09.338Z,72.61
2023-02-06T01:43:40.423Z,72.61
2023-02-06T01:46:07.207Z,72.48
2023-02-06T01:48:42.947Z,72.44
2023-02-06T01:51:16.822Z,72.46
2023-02-06T01:53:45.383Z,72.63
2023-02-06T01:56:13.161Z,72.40
2023-02-06T01:58:44.768Z,72.27
2023-02-06T02:01:11.807Z,72.28
2023-02-06T02:03:42.168Z,72.35
2023-02-06T02:06:12.170Z,72.27
2023-02-06T02:08:45.004Z,72.60
2023-02-06T02:11:17.387Z,72.37
2023-02-06T02:13:44.070Z,72.56
2023-02-06T02:16:28.059Z,73.00
2023-02-06T02:19:03.828Z,72.91
2023-02-06T02:21:45.596Z,72.84
2023-02-06T02:24:21.056Z,72.49
2023-02-06T02:27:06.320Z,72.46
2023-02-06T02:30:05.878Z,72.68
2023-02-06T02:32:50.607Z,72.65
2023-02-06T02:35:36.265Z,73.12
2023-02-06T02:38:25.616Z,73.22
2023-02-06T02:41:04.231Z,73.09
2023-02-06T02:43:33.413Z,73.47
2023-02-06T02:46:17.879Z,73.68
2023-02-06T02:48:48.307Z,73.49
2023-02-06T02:51:15.547Z,73.46
2023-02-06T02:53:42.080Z,73.22
2023-02-06T02:56:22.665Z,73.26
2023-02-06T02:58:57.286Z,72.91
2023-02-06T03:01:29.647Z,72.74
2023-02-06T03:04:00.168Z,73.27
2023-02-06T03:06:50.656Z,73.32
2023-02-06T03:09:52.940Z,73.61
2023-02-06T03:12:32.314Z,73.33
2023-02-06T03:15:05.332Z,73.58
2023-02-06T03:17:37.398Z,73.81
2023-02-06T03:20:06.640Z,73.66
2023-02-06T03:22:35.620Z,73.85
2023-02-06T03:25:05.939Z,73.52
2023-02-06T03:27:33.677Z,73.91
2023-02-06T03:30:03.149Z,73.77
2023-02-06T03:32:35.674Z,73.53
2023-02-06T03:35:08.040Z,73.59
2023-02-06T03:37:36.262Z,73.68
2023-02-06T03:40:05.451Z,73.77
2023-02-06T03:42:36.082Z,73.36
2023-02-06T03:45:07.848Z,73.66
2023-02-06T03:47:37.680Z,73.59
2023-02-06T03:50:06.302Z,73.55
2023-02-06T03:52:39.705Z,73.85
2023-02-06T03:55:13.859Z,73.63
2023-02-06T03:57:44.425Z,73.79
2023-02-06T04:00:11.731Z,73.88
2023-02-06T04:02:39.554Z,73.83
2023-02-06T04:05:06.825Z,73.93
2023-02-06T04:07:36.273Z,73.93
2023-02-06T04:10:03.446Z,74.02
2023-02-06T04:12:29.873Z,73.94
2023-02-06T04:14:56.413Z,73.82
2023-02-06T04:17:40.756Z,74.17
2023-02-06T04:20:10.107Z,73.87
2023-02-06T04:22:36.638Z,73.97
2023-02-06T04:25:03.325Z,74.37
2023-02-06T04:27:29.878Z,74.49
2023-02-06T04:29:56.372Z,74.49
2023-02-06T04:32:22.858Z,74.29
2023-02-06T04:34:49.347Z,74.46
2023-02-06T04:37:15.868Z,74.35
2023-02-06T04:39:42.449Z,74.25
2023-02-06T04:42:08.990Z,74.26
2023-02-06T04:44:38.423Z,74.45
2023-02-06T04:47:05.506Z,74.45
2023-02-06T04:49:32.071Z,74.41
2023-02-06T04:51:58.556Z,74.23
2023-02-06T04:54:25.054Z,74.17
2023-02-06T04:56:51.577Z,74.21
2023-02-06T04:59:18.051Z,74.19
2023-02-06T05:01:44.587Z,74.15
2023-02-06T05:04:11.239Z,74.11
2023-02-06T05:06:37.873Z,73.85
2023-02-06T05:11:39.519Z,73.72
2023-02-06T05:14:06.010Z,73.60
2023-02-06T05:16:32.666Z,73.25
2023-02-06T05:18:59.435Z,73.34
2023-02-06T05:21:26.976Z,73.06
2023-02-06T05:23:53.569Z,73.00
2023-02-06T05:26:20.369Z,73.07
2023-02-06T05:28:47.103Z,73.16
2023-02-06T05:31:19.988Z,72.91
2023-02-06T05:33:51.110Z,72.86
2023-02-06T05:36:19.230Z,72.44
2023-02-06T05:38:45.828Z,72.33
2023-02-06T05:41:12.483Z,72.11
2023-02-06T05:43:39.085Z,72.39
2023-02-06T05:46:05.608Z,72.41
2023-02-06T05:48:34.448Z,72.50
2023-02-06T05:51:01.565Z,72.52
2023-02-06T05:53:28.177Z,72.68
2023-02-06T05:55:54.800Z,72.87
2023-02-06T05:58:21.262Z,72.83
2023-02-06T06:00:47.701Z,73.12
2023-02-06T06:03:14.397Z,72.62
2023-02-06T06:05:40.956Z,72.76
2023-02-06T06:08:07.503Z,73.04
2023-02-06T06:10:34.038Z,72.94
2023-02-06T06:13:00.562Z,73.07
2023-02-06T06:15:27.052Z,73.31
2023-02-06T06:17:53.453Z,73.41
2023-02-06T06:20:20.163Z,73.59
2023-02-06T06:22:46.671Z,73.81
2023-02-06T06:25:13.145Z,74.11
2023-02-06T06:27:39.676Z,74.26
2023-02-06T06:30:06.655Z,74.20
2023-02-06T06:32:33.026Z,74.71
2023-02-06T06:34:59.438Z,74.50
2023-02-06T06:37:25.855Z,74.71
2023-02-06T06:39:52.346Z,74.59
2023-02-06T06:42:18.814Z,74.84
2023-02-06T06:44:45.311Z,74.91
2023-02-06T06:47:11.772Z,74.67
2023-02-06T06:49:38.903Z,74.80
2023-02-06T06:52:08.829Z,74.94
2023-02-06T06:54:39.986Z,74.78
2023-02-06T06:57:06.514Z,74.78
2023-02-06T06:59:32.985Z,74.71
2023-02-06T07:01:59.349Z,74.65
2023-02-06T07:04:29.455Z,74.59
2023-02-06T07:06:55.945Z,74.78
2023-02-06T07:09:22.574Z,74.51
2023-02-06T07:11:48.996Z,74.32
2023-02-06T07:14:15.831Z,74.54
2023-02-06T07:16:42.215Z,74.50
2023-02-06T07:19:09.652Z,74.52
2023-02-06T07:21:36.079Z,74.43
2023-02-06T07:24:03.602Z,74.62
2023-02-06T07:26:30.218Z,74.42
2023-02-06T07:28:57.049Z,74.53
2023-02-06T07:31:26.864Z,74.29
2023-02-06T07:33:53.303Z,74.46
2023-02-06T07:36:19.838Z,74.48
2023-02-06T07:38:47.996Z,74.24
2023-02-06T07:41:14.607Z,74.55
2023-02-06T07:43:41.183Z,74.36
2023-02-06T07:46:07.820Z,74.45
2023-02-06T07:48:34.322Z,74.53
2023-02-06T07:51:08.639Z,74.23
2023-02-06T07:53:36.337Z,74.45
2023-02-06T07:56:08.772Z,74.57
2023-02-06T07:58:35.141Z,74.69
2023-02-06T08:01:05.946Z,74.25
2023-02-06T08:03:33.370Z,74.75
2023-02-06T08:06:00.169Z,74.60
2023-02-06T08:08:26.807Z,74.85
2023-02-06T08:10:53.331Z,74.70
2023-02-06T08:13:19.767Z,74.72
2023-02-06T08:15:46.341Z,74.65
2023-02-06T08:18:12.837Z,74.63
2023-02-06T08:20:39.366Z,74.75
2023-02-06T08:23:07.673Z,75.06
2023-02-06T08:25:34.474Z,74.59
2023-02-06T08:28:01.286Z,74.79
2023-02-06T08:30:27.781Z,74.80
2023-02-06T08:32:54.212Z,74.79
2023-02-06T08:35:20.682Z,74.68
2023-02-06T08:37:47.198Z,74.85
2023-02-06T08:40:13.813Z,75.09
2023-02-06T08:42:40.646Z,74.80
2023-02-06T08:45:07.570Z,74.89
2023-02-06T08:47:34.127Z,74.88
2023-02-06T08:50:03.143Z,74.75
2023-02-06T08:52:29.871Z,75.05
2023-02-06T08:54:56.362Z,74.96
2023-02-06T08:57:22.915Z,75.04
2023-02-06T08:59:50.006Z,74.61
2023-02-06T09:02:16.618Z,74.87
2023-02-06T09:04:43.327Z,74.38
2023-02-06T09:07:09.847Z,74.59
2023-02-06T09:09:36.521Z,74.66
2023-02-06T09:12:03.965Z,74.61
2023-02-06T09:14:31.310Z,74.47
2023-02-06T09:16:58.447Z,74.55
2023-02-06T09:19:25.889Z,74.08
2023-02-06T09:21:52.514Z,74.27
2023-02-06T09:24:19.202Z,74.08
2023-02-06T09:26:58.996Z,74.63
2023-02-06T09:29:28.818Z,73.97
2023-02-06T09:31:57.138Z,73.79
2023-02-06T09:34:25.734Z,73.67
2023-02-06T09:36:54.433Z,74.00
2023-02-06T09:39:21.045Z,73.95
2023-02-06T09:41:52.190Z,73.54
2023-02-06T09:44:21.531Z,73.75
2023-02-06T09:46:53.225Z,74.12
2023-02-06T09:49:36.157Z,73.45
2023-02-06T09:52:10.549Z,73.16
2023-02-06T09:54:53.854Z,73.33
2023-02-06T09:57:42.145Z,73.03
2023-02-06T10:00:15.970Z,73.52
2023-02-06T10:03:19.634Z,72.66
2023-02-06T10:05:49.804Z,72.97
2023-02-06T10:08:16.220Z,73.68
2023-02-06T10:10:52.443Z,73.17
2023-02-06T10:13:57.246Z,73.43
2023-02-06T10:16:40.949Z,72.88
2023-02-06T10:19:36.612Z,73.10
2023-02-06T10:22:45.082Z,73.23
2023-02-06T10:25:15.417Z,73.69
2023-02-06T10:27:44.411Z,73.88
2023-02-06T10:30:22.413Z,73.17
2023-02-06T10:32:59.534Z,73.26
2023-02-06T10:35:38.035Z,73.34
2023-02-06T10:38:23.313Z,74.22
2023-02-06T10:40:58.306Z,73.87
2023-02-06T10:43:53.289Z,74.28
2023-02-06T10:46:46.173Z,73.59
2023-02-06T10:49:22.100Z,74.01
2023-02-06T10:51:56.344Z,74.20
2023-02-06T10:54:36.574Z,73.76
2023-02-06T10:57:04.793Z,74.74
2023-02-06T10:59:35.210Z,74.35
2023-02-06T11:02:07.582Z,73.76
2023-02-06T11:04:39.419Z,73.97
2023-02-06T11:07:18.444Z,73.82
2023-02-06T11:09:45.149Z,74.38
2023-02-06T11:12:24.140Z,73.62
2023-02-06T11:14:54.483Z,74.00
2023-02-06T11:17:23.614Z,73.89
2023-02-06T11:19:53.026Z,73.78
2023-02-06T11:22:33.329Z,73.03
2023-02-06T11:25:31.693Z,73.64
2023-02-06T11:28:00.023Z,74.05
2023-02-06T11:30:37.509Z,73.63
2023-02-06T11:33:18.549Z,73.78
2023-02-06T11:35:58.996Z,73.96
2023-02-06T11:38:29.440Z,74.25
2023-02-06T11:41:16.362Z,73.75
2023-02-06T11:43:42.645Z,74.36
2023-02-06T11:46:31.038Z,73.78
2023-02-06T11:48:58.510Z,74.52
2023-02-06T11:51:25.886Z,74.47
2023-02-06T11:54:01.004Z,73.92
2023-02-06T11:56:29.880Z,74.14
2023-02-06T11:59:21.373Z,73.71
2023-02-06T12:01:49.075Z,74.07
2023-02-06T12:04:27.062Z,73.67
2023-02-06T12:07:03.000Z,73.73
2023-02-06T12:09:29.554Z,74.21
2023-02-06T12:12:06.271Z,73.78
2023-02-06T12:14:50.493Z,73.39
2023-02-06T12:17:26.943Z,73.70
2023-02-06T12:20:06.944Z,73.65
2023-02-06T12:22:41.342Z,74.30
2023-02-06T12:25:24.729Z,73.73
2023-02-06T12:27:55.237Z,74.20
2023-02-06T12:30:47.678Z,73.84
2023-02-06T12:33:18.608Z,74.37
2023-02-06T12:36:00.662Z,75.09
2023-02-06T12:38:48.224Z,75.93
2023-02-06T12:41:42.433Z,76.03
2023-02-06T12:44:30.626Z,75.59
2023-02-06T12:47:16.035Z,74.40
2023-02-06T12:49:52.373Z,74.30
2023-02-06T12:52:49.964Z,73.40
2023-02-06T12:55:16.419Z,73.93
2023-02-06T12:57:43.238Z,73.66
2023-02-06T13:00:46.769Z,72.57
2023-02-06T13:03:16.006Z,73.22
2023-02-06T13:05:46.936Z,72.85
2023-02-06T13:08:18.592Z,72.82
2023-02-06T13:10:45.318Z,73.24
2023-02-06T13:13:35.571Z,72.53
2023-02-06T13:16:02.838Z,73.51
2023-02-06T13:18:41.416Z,73.09
2023-02-06T13:21:13.951Z,72.83
2023-02-06T13:23:50.419Z,72.54
2023-02-06T13:26:16.899Z,73.38
2023-02-06T13:28:56.708Z,73.01
2023-02-06T13:31:26.603Z,73.58
2023-02-06T13:34:07.266Z,72.57
2023-02-06T13:37:18.875Z,71.86
2023-02-06T13:40:09.016Z,72.25
2023-02-06T13:42:43.094Z,72.15
2023-02-06T13:45:25.865Z,72.21
2023-02-06T13:48:04.946Z,72.43
2023-02-06T13:50:46.540Z,72.44
2023-02-06T13:53:15.863Z,73.05
2023-02-06T13:55:58.054Z,73.42
2023-02-06T13:58:48.284Z,72.86
2023-02-06T14:01:19.970Z,72.71
2023-02-06T14:03:52.686Z,73.06
2023-02-06T14:06:37.761Z,72.49
2023-02-06T14:09:54.480Z,74.24
2023-02-06T14:12:39.205Z,76.63
2023-02-06T14:15:21.738Z,75.96
2023-02-06T14:18:03.208Z,76.11
2023-02-06T14:20:41.867Z,76.54
2023-02-06T14:23:42.096Z,75.48
2023-02-06T14:26:39.748Z,74.70
2023-02-06T14:29:40.246Z,73.78
2023-02-06T14:32:12.551Z,73.39
2023-02-06T14:34:49.855Z,69.01
2023-02-06T14:37:59.540Z,68.37
2023-02-06T14:40:34.590Z,67.53
2023-02-06T14:43:04.990Z,67.76
2023-02-06T14:45:42.093Z,66.76
2023-02-06T14:48:19.818Z,66.36
2023-02-06T14:50:51.175Z,66.81
2023-02-06T14:53:25.225Z,66.63
2023-02-06T14:55:52.125Z,67.76
2023-02-06T14:58:28.034Z,66.61
2023-02-06T15:00:56.477Z,67.86
2023-02-06T15:03:27.290Z,67.66
2023-02-06T15:06:04.565Z,67.26
2023-02-06T15:08:32.618Z,68.42
2023-02-06T15:11:07.783Z,68.46
2023-02-06T15:13:35.392Z,69.27
2023-02-06T15:16:05.737Z,69.20
2023-02-06T15:18:35.685Z,69.58
2023-02-06T15:21:05.417Z,69.18
2023-02-06T15:23:42.862Z,69.09
2023-02-06T15:26:21.114Z,68.63
2023-02-06T15:28:47.961Z,69.63
2023-02-06T15:31:23.913Z,68.70
2023-02-06T15:33:53.597Z,69.83
2023-02-06T15:36:23.757Z,69.60
2023-02-06T15:38:50.920Z,70.10
2023-02-06T15:41:18.124Z,70.03
2023-02-06T15:43:46.710Z,70.04
2023-02-06T15:46:14.568Z,69.62
2023-02-06T15:48:51.197Z,68.62
2023-02-06T15:51:30.001Z,68.77
2023-02-06T15:54:19.361Z,68.74
2023-02-06T15:56:51.183Z,69.14
2023-02-06T15:59:24.172Z,68.95
2023-02-06T16:01:51.276Z,69.08
2023-02-06T16:04:24.157Z,69.42
2023-02-06T16:07:07.441Z,69.33
2023-02-06T16:09:42.355Z,69.21
2023-02-06T16:12:09.685Z,69.75
2023-02-06T16:14:40.018Z,69.46
2023-02-06T16:17:23.925Z,69.29
2023-02-06T16:20:02.907Z,69.19
2023-02-06T16:22:32.451Z,69.41
2023-02-06T16:25:24.612Z,68.94
2023-02-06T16:27:52.206Z,69.18
2023-02-06T16:30:28.954Z,68.75
2023-02-06T16:32:57.154Z,69.20
2023-02-06T16:35:24.690Z,69.60
2023-02-06T16:37:53.210Z,69.25
2023-02-06T16:40:22.107Z,68.97
2023-02-06T16:42:48.819Z,69.18
2023-02-06T16:45:26.527Z,69.12
2023-02-06T16:47:54.363Z,69.32
2023-02-06T16:50:21.687Z,69.94
2023-02-06T16:52:53.884Z,69.99
2023-02-06T16:55:24.253Z,70.10
2023-02-06T16:57:58.776Z,70.20
2023-02-06T17:00:31.138Z,70.04
2023-02-06T17:02:58.900Z,70.69
2023-02-06T17:05:28.326Z,70.62
2023-02-06T17:07:55.325Z,70.61
2023-02-06T17:13:13.655Z,70.69
2023-02-06T17:15:40.403Z,70.86
2023-02-06T17:18:06.952Z,70.97
2023-02-06T17:20:36.968Z,70.95
2023-02-06T17:23:04.212Z,71.39
2023-02-06T17:25:31.420Z,71.54
2023-02-06T17:27:58.700Z,71.44
2023-02-06T17:30:43.683Z,71.65
2023-02-06T17:33:10.502Z,71.61
2023-02-06T17:35:38.223Z,71.78
2023-02-06T17:38:06.934Z,71.73
2023-02-06T17:40:37.981Z,71.77
2023-02-06T17:43:06.948Z,71.69
2023-02-06T17:45:37.199Z,71.81
2023-02-06T17:48:04.365Z,72.04
2023-02-06T17:50:30.890Z,71.97
2023-02-06T17:52:58.939Z,72.17
2023-02-06T17:55:27.420Z,72.33
2023-02-06T17:57:54.530Z,72.13
2023-02-06T18:00:25.893Z,72.71
2023-02-06T18:02:53.932Z,72.17
2023-02-06T18:05:21.674Z,72.25
2023-02-06T18:07:50.574Z,72.61
2023-02-06T18:10:22.687Z,72.33
2023-02-06T18:12:49.276Z,72.47
2023-02-06T18:15:16.365Z,72.27
2023-02-06T18:17:43.336Z,72.21
2023-02-06T18:20:11.581Z,72.17
2023-02-06T18:22:44.017Z,72.47
2023-02-06T18:25:13.478Z,72.97
2023-02-06T18:27:41.424Z,72.88
2023-02-06T18:30:09.511Z,72.95
2023-02-06T18:32:38.443Z,72.84
2023-02-06T18:35:06.369Z,72.47
2023-02-06T18:37:33.044Z,72.69
2023-02-06T18:39:59.547Z,72.43
2023-02-06T18:42:44.292Z,72.56
2023-02-06T18:45:10.728Z,72.53
2023-02-06T18:47:39.019Z,72.51
2023-02-06T18:50:06.111Z,72.41
2023-02-06T18:52:32.617Z,72.36
2023-02-06T18:54:59.066Z,72.45
2023-02-06T18:57:25.576Z,72.26
2023-02-06T18:59:52.056Z,71.98
2023-02-06T19:02:18.539Z,72.04
2023-02-06T19:04:45.129Z,71.94
2023-02-06T19:07:11.743Z,72.04
2023-02-06T19:09:39.176Z,72.22
2023-02-06T19:12:05.938Z,72.03
2023-02-06T19:14:32.425Z,72.14
2023-02-06T19:16:59.194Z,72.00
2023-02-06T19:19:25.770Z,71.85
2023-02-06T19:21:52.287Z,71.98
2023-02-06T19:24:18.846Z,71.93
2023-02-06T19:26:45.743Z,72.09
2023-02-06T19:29:34.831Z,72.00
2023-02-06T19:32:04.911Z,71.95
2023-02-06T19:34:46.753Z,71.88
2023-02-06T19:37:13.785Z,72.09
2023-02-06T19:39:41.276Z,72.09
2023-02-06T19:42:09.941Z,72.08
2023-02-06T19:44:39.738Z,71.75
2023-02-06T19:47:06.266Z,71.83
2023-02-06T19:49:32.698Z,72.06
2023-02-06T19:51:59.789Z,71.93
2023-02-06T19:54:26.527Z,71.93
2023-02-06T19:56:53.225Z,72.01
2023-02-06T19:59:26.106Z,72.24
2023-02-06T20:01:54.071Z,72.25
2023-02-06T20:04:23.152Z,71.93
2023-02-06T20:06:51.265Z,71.93
2023-02-06T20:09:20.218Z,71.64
2023-02-06T20:11:48.268Z,72.20
2023-02-06T20:14:15.157Z,72.08
2023-02-06T20:16:42.562Z,72.06
2023-02-06T20:19:16.481Z,71.82
2023-02-06T20:21:46.318Z,72.11
2023-02-06T20:24:18.400Z,72.06
2023-02-06T20:26:45.145Z,72.22
2023-02-06T20:29:20.433Z,72.29
2023-02-06T20:31:47.790Z,72.31
2023-02-06T20:34:14.406Z,72.60
2023-02-06T20:36:41.863Z,72.70
2023-02-06T20:39:11.437Z,72.65
2023-02-06T20:41:38.270Z,72.74
2023-02-06T20:44:05.173Z,72.82
2023-02-06T20:46:32.664Z,73.21
2023-02-06T20:49:00.924Z,72.77
2023-02-06T20:51:28.585Z,72.90
2023-02-06T20:53:55.558Z,72.68
2023-02-06T20:56:23.192Z,72.82
2023-02-06T20:58:51.016Z,72.59
2023-02-06T21:01:23.016Z,72.57
2023-02-06T21:03:51.546Z,72.49
2023-02-06T21:06:18.262Z,72.54
2023-02-06T21:08:50.171Z,72.58
2023-02-06T21:11:17.199Z,72.25
2023-02-06T21:13:43.767Z,72.55
2023-02-06T21:16:13.452Z,72.51
2023-02-06T21:18:42.481Z,72.51
2023-02-06T21:21:12.090Z,72.50
2023-02-06T21:23:39.752Z,72.41
2023-02-06T21:26:07.709Z,72.32
2023-02-06T21:28:35.496Z,72.80
2023-02-06T21:31:05.644Z,72.85
2023-02-06T21:33:32.192Z,72.84
2023-02-06T21:35:58.702Z,72.85
2023-02-06T21:38:25.213Z,72.47
2023-02-06T21:40:51.711Z,72.63
2023-02-06T21:43:18.287Z,72.62
2023-02-06T21:45:47.832Z,72.29
2023-02-06T21:48:14.895Z,72.49
2023-02-06T21:50:41.690Z,72.46
2023-02-06T21:53:09.241Z,72.11
2023-02-06T21:55:41.915Z,71.92
2023-02-06T21:58:08.746Z,72.22
2023-02-06T22:00:35.399Z,72.24
2023-02-06T22:03:02.207Z,72.32
2023-02-06T22:05:29.193Z,71.97
2023-02-06T22:07:56.794Z,72.35
2023-02-06T22:10:23.298Z,71.90
2023-02-06T22:12:49.710Z,72.01
2023-02-06T22:15:16.159Z,71.80
2023-02-06T22:17:42.639Z,71.72
2023-02-06T22:20:09.424Z,71.89
2023-02-06T22:22:37.202Z,71.75
2023-02-06T22:25:03.760Z,71.53
2023-02-06T22:27:33.074Z,71.22
2023-02-06T22:29:59.533Z,71.46
2023-02-06T22:32:26.009Z,71.53
2023-02-06T22:34:53.868Z,71.23
2023-02-06T22:37:20.339Z,71.21
2023-02-06T22:39:46.830Z,71.30
2023-02-06T22:42:13.287Z,71.30
2023-02-06T22:44:39.877Z,71.48
2023-02-06T22:47:06.379Z,71.15
2023-02-06T22:49:32.926Z,70.91
2023-02-06T22:51:59.303Z,71.27
2023-02-06T22:54:25.766Z,71.46
2023-02-06T22:56:52.190Z,71.32
2023-02-06T22:59:23.222Z,71.56
2023-02-06T23:01:52.621Z,71.16
2023-02-06T23:04:28.194Z,70.82
2023-02-06T23:06:55.454Z,70.97
2023-02-06T23:09:24.860Z,70.80
2023-02-06T23:11:52.452Z,70.82
2023-02-06T23:14:19.691Z,70.94
2023-02-06T23:16:47.139Z,70.76
2023-02-06T23:19:14.436Z,70.71
2023-02-06T23:21:42.462Z,70.83
2023-02-06T23:24:09.878Z,70.98
2023-02-06T23:26:37.474Z,71.14
2023-02-06T23:29:06.738Z,70.85
2023-02-06T23:31:34.166Z,71.00
2023-02-06T23:34:00.803Z,71.06
2023-02-06T23:36:28.641Z,71.11
2023-02-06T23:38:55.510Z,70.64
2023-02-06T23:41:27.385Z,70.40
2023-02-06T23:43:56.598Z,70.88
2023-02-06T23:46:23.829Z,71.18
2023-02-06T23:48:50.892Z,71.34
2023-02-06T23:51:21.591Z,70.84
2023-02-06T23:53:48.900Z,70.93
2023-02-06T23:56:18.596Z,70.53
2023-02-06T23:58:45.719Z,70.21
